sensor_id;sensor_type;location;lat;lon;timestamp;P1;durP1;ratioP1;P2;durP2;ratioP2
4122;SDS011;2075;51.062;6.920;2023-04-06T00:00:07;18.80;;;11.17;;
4122;SDS011;2075;51.062;6.920;2023-04-06T00:02:54;25.33;;;12.60;;
4122;SDS011;2075;51.062;6.920;2023-04-06T00:05:39;23.10;;;12.73;;
4122;SDS011;2075;51.062;6.920;2023-04-06T00:08:25;24.73;;;11.77;;
4122;SDS011;2075;51.062;6.920;2023-04-06T00:11:10;25.63;;;11.57;;
4122;SDS011;2075;51.062;6.920;2023-04-06T00:13:56;22.63;;;11.73;;
4122;SDS011;2075;51.062;6.920;2023-04-06T00:16:42;22.20;;;12.80;;
4122;SDS011;2075;51.062;6.920;2023-04-06T00:19:28;19.80;;;11.40;;
4122;SDS011;2075;51.062;6.920;2023-04-06T00:22:13;22.00;;;11.30;;
4122;SDS011;2075;51.062;6.920;2023-04-06T00:24:59;21.03;;;12.43;;
4122;SDS011;2075;51.062;6.920;2023-04-06T00:27:45;20.70;;;11.57;;
4122;SDS011;2075;51.062;6.920;2023-04-06T00:30:30;20.93;;;11.30;;
4122;SDS011;2075;51.062;6.920;2023-04-06T00:33:17;20.17;;;10.20;;
4122;SDS011;2075;51.062;6.920;2023-04-06T00:36:03;23.23;;;11.50;;
4122;SDS011;2075;51.062;6.920;2023-04-06T00:38:49;17.87;;;10.60;;
4122;SDS011;2075;51.062;6.920;2023-04-06T00:41:35;23.77;;;12.23;;
4122;SDS011;2075;51.062;6.920;2023-04-06T00:44:20;20.40;;;11.10;;
4122;SDS011;2075;51.062;6.920;2023-04-06T00:47:07;24.17;;;11.67;;
4122;SDS011;2075;51.062;6.920;2023-04-06T00:49:54;22.97;;;11.00;;
4122;SDS011;2075;51.062;6.920;2023-04-06T00:52:40;21.00;;;12.30;;
4122;SDS011;2075;51.062;6.920;2023-04-06T00:55:26;20.50;;;11.20;;
4122;SDS011;2075;51.062;6.920;2023-04-06T00:58:13;17.93;;;11.30;;
4122;SDS011;2075;51.062;6.920;2023-04-06T01:01:05;20.80;;;11.60;;
4122;SDS011;2075;51.062;6.920;2023-04-06T01:03:52;18.27;;;11.10;;
4122;SDS011;2075;51.062;6.920;2023-04-06T01:06:40;20.37;;;11.97;;
4122;SDS011;2075;51.062;6.920;2023-04-06T01:09:27;20.23;;;11.10;;
4122;SDS011;2075;51.062;6.920;2023-04-06T01:12:12;20.10;;;11.37;;
4122;SDS011;2075;51.062;6.920;2023-04-06T01:14:58;23.03;;;11.23;;
4122;SDS011;2075;51.062;6.920;2023-04-06T01:17:45;21.90;;;11.47;;
4122;SDS011;2075;51.062;6.920;2023-04-06T01:20:33;24.30;;;10.70;;
4122;SDS011;2075;51.062;6.920;2023-04-06T01:23:22;22.90;;;11.43;;
4122;SDS011;2075;51.062;6.920;2023-04-06T01:26:07;14.97;;;10.30;;
4122;SDS011;2075;51.062;6.920;2023-04-06T01:28:53;20.13;;;11.30;;
4122;SDS011;2075;51.062;6.920;2023-04-06T01:31:43;25.37;;;12.30;;
4122;SDS011;2075;51.062;6.920;2023-04-06T01:34:29;20.67;;;12.07;;
4122;SDS011;2075;51.062;6.920;2023-04-06T01:37:19;21.63;;;11.07;;
4122;SDS011;2075;51.062;6.920;2023-04-06T01:40:07;21.50;;;11.67;;
4122;SDS011;2075;51.062;6.920;2023-04-06T01:43:02;20.80;;;11.20;;
4122;SDS011;2075;51.062;6.920;2023-04-06T01:46:19;18.10;;;11.23;;
4122;SDS011;2075;51.062;6.920;2023-04-06T01:49:05;18.07;;;11.30;;
4122;SDS011;2075;51.062;6.920;2023-04-06T01:51:56;22.47;;;11.77;;
4122;SDS011;2075;51.062;6.920;2023-04-06T01:54:42;21.03;;;11.93;;
4122;SDS011;2075;51.062;6.920;2023-04-06T01:57:49;18.63;;;10.57;;
4122;SDS011;2075;51.062;6.920;2023-04-06T02:00:47;20.53;;;11.97;;
4122;SDS011;2075;51.062;6.920;2023-04-06T02:03:33;17.43;;;11.20;;
4122;SDS011;2075;51.062;6.920;2023-04-06T02:06:24;22.03;;;11.20;;
4122;SDS011;2075;51.062;6.920;2023-04-06T02:09:11;19.10;;;10.80;;
4122;SDS011;2075;51.062;6.920;2023-04-06T02:11:57;19.10;;;11.70;;
4122;SDS011;2075;51.062;6.920;2023-04-06T02:14:43;22.40;;;12.60;;
4122;SDS011;2075;51.062;6.920;2023-04-06T02:17:29;24.30;;;12.00;;
4122;SDS011;2075;51.062;6.920;2023-04-06T02:20:15;19.50;;;11.80;;
4122;SDS011;2075;51.062;6.920;2023-04-06T02:23:00;19.70;;;11.73;;
4122;SDS011;2075;51.062;6.920;2023-04-06T02:25:45;21.30;;;11.27;;
4122;SDS011;2075;51.062;6.920;2023-04-06T02:28:31;18.67;;;12.20;;
4122;SDS011;2075;51.062;6.920;2023-04-06T02:31:20;24.20;;;12.53;;
4122;SDS011;2075;51.062;6.920;2023-04-06T02:34:06;22.90;;;11.50;;
4122;SDS011;2075;51.062;6.920;2023-04-06T02:36:54;19.20;;;11.17;;
4122;SDS011;2075;51.062;6.920;2023-04-06T02:39:40;23.50;;;11.70;;
4122;SDS011;2075;51.062;6.920;2023-04-06T02:42:27;15.90;;;10.10;;
4122;SDS011;2075;51.062;6.920;2023-04-06T02:45:13;16.93;;;10.47;;
4122;SDS011;2075;51.062;6.920;2023-04-06T02:48:04;25.90;;;11.07;;
4122;SDS011;2075;51.062;6.920;2023-04-06T02:50:50;19.37;;;9.80;;
4122;SDS011;2075;51.062;6.920;2023-04-06T02:53:36;16.70;;;10.30;;
4122;SDS011;2075;51.062;6.920;2023-04-06T02:56:22;20.47;;;10.53;;
4122;SDS011;2075;51.062;6.920;2023-04-06T02:59:09;20.80;;;10.47;;
4122;SDS011;2075;51.062;6.920;2023-04-06T03:01:55;18.53;;;10.00;;
4122;SDS011;2075;51.062;6.920;2023-04-06T03:04:44;21.77;;;10.33;;
4122;SDS011;2075;51.062;6.920;2023-04-06T03:07:39;27.43;;;9.90;;
4122;SDS011;2075;51.062;6.920;2023-04-06T03:10:30;15.80;;;9.70;;
4122;SDS011;2075;51.062;6.920;2023-04-06T03:13:15;19.47;;;10.63;;
4122;SDS011;2075;51.062;6.920;2023-04-06T03:16:14;18.13;;;10.10;;
4122;SDS011;2075;51.062;6.920;2023-04-06T03:19:00;16.37;;;9.77;;
4122;SDS011;2075;51.062;6.920;2023-04-06T03:21:50;24.33;;;10.00;;
4122;SDS011;2075;51.062;6.920;2023-04-06T03:24:37;26.43;;;10.20;;
4122;SDS011;2075;51.062;6.920;2023-04-06T03:27:22;22.13;;;10.87;;
4122;SDS011;2075;51.062;6.920;2023-04-06T03:30:08;16.47;;;10.17;;
4122;SDS011;2075;51.062;6.920;2023-04-06T03:32:54;23.93;;;10.50;;
4122;SDS011;2075;51.062;6.920;2023-04-06T03:35:43;19.00;;;10.80;;
4122;SDS011;2075;51.062;6.920;2023-04-06T03:38:30;26.23;;;10.07;;
4122;SDS011;2075;51.062;6.920;2023-04-06T03:41:16;17.70;;;9.40;;
4122;SDS011;2075;51.062;6.920;2023-04-06T03:44:09;19.90;;;9.97;;
4122;SDS011;2075;51.062;6.920;2023-04-06T03:46:55;20.17;;;10.10;;
4122;SDS011;2075;51.062;6.920;2023-04-06T03:49:41;16.20;;;9.83;;
4122;SDS011;2075;51.062;6.920;2023-04-06T03:52:29;21.43;;;9.77;;
4122;SDS011;2075;51.062;6.920;2023-04-06T03:55:16;21.00;;;11.13;;
4122;SDS011;2075;51.062;6.920;2023-04-06T03:58:01;18.57;;;10.43;;
4122;SDS011;2075;51.062;6.920;2023-04-06T04:00:47;22.40;;;10.03;;
4122;SDS011;2075;51.062;6.920;2023-04-06T04:03:32;17.37;;;9.80;;
4122;SDS011;2075;51.062;6.920;2023-04-06T04:06:18;16.40;;;9.77;;
4122;SDS011;2075;51.062;6.920;2023-04-06T04:09:04;20.50;;;9.50;;
4122;SDS011;2075;51.062;6.920;2023-04-06T04:11:50;16.47;;;9.47;;
4122;SDS011;2075;51.062;6.920;2023-04-06T04:14:36;16.57;;;10.07;;
4122;SDS011;2075;51.062;6.920;2023-04-06T04:17:21;19.90;;;10.30;;
4122;SDS011;2075;51.062;6.920;2023-04-06T04:20:07;16.50;;;9.73;;
4122;SDS011;2075;51.062;6.920;2023-04-06T04:22:53;22.77;;;9.53;;
4122;SDS011;2075;51.062;6.920;2023-04-06T04:25:38;21.93;;;9.23;;
4122;SDS011;2075;51.062;6.920;2023-04-06T04:28:25;13.87;;;8.57;;
4122;SDS011;2075;51.062;6.920;2023-04-06T04:31:13;15.10;;;9.60;;
4122;SDS011;2075;51.062;6.920;2023-04-06T04:33:59;14.60;;;9.33;;
4122;SDS011;2075;51.062;6.920;2023-04-06T04:42:22;29.73;;;11.50;;
4122;SDS011;2075;51.062;6.920;2023-04-06T04:45:14;19.73;;;10.00;;
4122;SDS011;2075;51.062;6.920;2023-04-06T04:48:00;19.87;;;10.30;;
4122;SDS011;2075;51.062;6.920;2023-04-06T04:50:55;21.00;;;12.40;;
4122;SDS011;2075;51.062;6.920;2023-04-06T04:53:44;21.93;;;11.00;;
4122;SDS011;2075;51.062;6.920;2023-04-06T04:56:49;18.67;;;11.00;;
4122;SDS011;2075;51.062;6.920;2023-04-06T04:59:57;17.53;;;10.60;;
4122;SDS011;2075;51.062;6.920;2023-04-06T05:02:44;20.93;;;9.13;;
4122;SDS011;2075;51.062;6.920;2023-04-06T05:05:34;18.27;;;9.30;;
4122;SDS011;2075;51.062;6.920;2023-04-06T05:08:21;15.30;;;9.03;;
4122;SDS011;2075;51.062;6.920;2023-04-06T05:11:07;15.20;;;9.20;;
4122;SDS011;2075;51.062;6.920;2023-04-06T05:13:58;17.20;;;9.10;;
4122;SDS011;2075;51.062;6.920;2023-04-06T05:16:44;24.67;;;9.60;;
4122;SDS011;2075;51.062;6.920;2023-04-06T05:19:32;27.63;;;9.83;;
4122;SDS011;2075;51.062;6.920;2023-04-06T05:22:21;19.93;;;9.03;;
4122;SDS011;2075;51.062;6.920;2023-04-06T05:25:15;14.60;;;8.23;;
4122;SDS011;2075;51.062;6.920;2023-04-06T05:28:03;15.47;;;8.83;;
4122;SDS011;2075;51.062;6.920;2023-04-06T05:30:52;23.30;;;9.77;;
4122;SDS011;2075;51.062;6.920;2023-04-06T05:33:39;17.43;;;9.63;;
4122;SDS011;2075;51.062;6.920;2023-04-06T05:36:32;18.73;;;9.23;;
4122;SDS011;2075;51.062;6.920;2023-04-06T05:42:08;23.63;;;10.13;;
4122;SDS011;2075;51.062;6.920;2023-04-06T05:45:11;18.43;;;9.93;;
4122;SDS011;2075;51.062;6.920;2023-04-06T05:48:08;17.27;;;10.30;;
4122;SDS011;2075;51.062;6.920;2023-04-06T05:50:54;20.97;;;11.17;;
4122;SDS011;2075;51.062;6.920;2023-04-06T05:53:50;22.83;;;10.40;;
4122;SDS011;2075;51.062;6.920;2023-04-06T05:56:40;21.70;;;10.13;;
4122;SDS011;2075;51.062;6.920;2023-04-06T05:59:29;19.43;;;10.67;;
4122;SDS011;2075;51.062;6.920;2023-04-06T06:02:15;24.37;;;10.20;;
4122;SDS011;2075;51.062;6.920;2023-04-06T06:05:04;21.27;;;10.23;;
4122;SDS011;2075;51.062;6.920;2023-04-06T06:07:51;23.83;;;10.95;;
4122;SDS011;2075;51.062;6.920;2023-04-06T06:10:40;16.57;;;9.37;;
4122;SDS011;2075;51.062;6.920;2023-04-06T06:13:28;17.07;;;8.90;;
4122;SDS011;2075;51.062;6.920;2023-04-06T06:16:14;11.57;;;8.00;;
4122;SDS011;2075;51.062;6.920;2023-04-06T06:19:05;13.07;;;8.63;;
4122;SDS011;2075;51.062;6.920;2023-04-06T06:21:53;14.33;;;8.20;;
4122;SDS011;2075;51.062;6.920;2023-04-06T06:24:39;19.33;;;9.63;;
4122;SDS011;2075;51.062;6.920;2023-04-06T06:27:26;9.82;;;8.13;;
4122;SDS011;2075;51.062;6.920;2023-04-06T06:30:12;12.90;;;8.23;;
4122;SDS011;2075;51.062;6.920;2023-04-06T06:33:00;13.47;;;8.83;;
4122;SDS011;2075;51.062;6.920;2023-04-06T06:35:47;11.10;;;8.07;;
4122;SDS011;2075;51.062;6.920;2023-04-06T06:38:32;14.57;;;9.60;;
4122;SDS011;2075;51.062;6.920;2023-04-06T06:41:17;9.93;;;7.90;;
4122;SDS011;2075;51.062;6.920;2023-04-06T06:44:04;11.40;;;8.27;;
4122;SDS011;2075;51.062;6.920;2023-04-06T06:46:52;12.27;;;8.30;;
4122;SDS011;2075;51.062;6.920;2023-04-06T06:49:38;10.73;;;7.90;;
4122;SDS011;2075;51.062;6.920;2023-04-06T06:52:24;17.73;;;8.30;;
4122;SDS011;2075;51.062;6.920;2023-04-06T06:55:10;15.07;;;8.73;;
4122;SDS011;2075;51.062;6.920;2023-04-06T06:57:56;11.67;;;8.27;;
4122;SDS011;2075;51.062;6.920;2023-04-06T07:00:43;10.33;;;8.30;;
4122;SDS011;2075;51.062;6.920;2023-04-06T07:03:29;11.33;;;8.20;;
4122;SDS011;2075;51.062;6.920;2023-04-06T07:06:15;13.10;;;8.50;;
4122;SDS011;2075;51.062;6.920;2023-04-06T07:09:00;23.27;;;8.90;;
4122;SDS011;2075;51.062;6.920;2023-04-06T07:11:47;12.43;;;7.93;;
4122;SDS011;2075;51.062;6.920;2023-04-06T07:14:33;14.43;;;9.30;;
4122;SDS011;2075;51.062;6.920;2023-04-06T07:17:20;17.10;;;8.77;;
4122;SDS011;2075;51.062;6.920;2023-04-06T07:20:06;12.53;;;8.80;;
4122;SDS011;2075;51.062;6.920;2023-04-06T07:22:53;13.30;;;8.82;;
4122;SDS011;2075;51.062;6.920;2023-04-06T07:25:38;14.27;;;9.30;;
4122;SDS011;2075;51.062;6.920;2023-04-06T07:28:24;16.70;;;9.17;;
4122;SDS011;2075;51.062;6.920;2023-04-06T07:31:11;13.23;;;8.67;;
4122;SDS011;2075;51.062;6.920;2023-04-06T07:33:58;11.93;;;8.80;;
4122;SDS011;2075;51.062;6.920;2023-04-06T07:36:44;12.13;;;8.70;;
4122;SDS011;2075;51.062;6.920;2023-04-06T07:39:29;12.70;;;9.03;;
4122;SDS011;2075;51.062;6.920;2023-04-06T07:42:15;14.93;;;9.63;;
4122;SDS011;2075;51.062;6.920;2023-04-06T07:45:01;14.20;;;9.90;;
4122;SDS011;2075;51.062;6.920;2023-04-06T07:47:47;15.50;;;9.90;;
4122;SDS011;2075;51.062;6.920;2023-04-06T07:50:35;14.50;;;10.43;;
4122;SDS011;2075;51.062;6.920;2023-04-06T07:53:22;15.80;;;9.47;;
4122;SDS011;2075;51.062;6.920;2023-04-06T07:56:08;16.30;;;9.67;;
4122;SDS011;2075;51.062;6.920;2023-04-06T07:58:54;11.67;;;8.70;;
4122;SDS011;2075;51.062;6.920;2023-04-06T08:01:41;13.43;;;9.00;;
4122;SDS011;2075;51.062;6.920;2023-04-06T08:04:26;16.38;;;9.68;;
4122;SDS011;2075;51.062;6.920;2023-04-06T08:07:13;16.33;;;9.60;;
4122;SDS011;2075;51.062;6.920;2023-04-06T08:09:59;17.97;;;10.07;;
4122;SDS011;2075;51.062;6.920;2023-04-06T08:12:44;14.33;;;9.87;;
4122;SDS011;2075;51.062;6.920;2023-04-06T08:15:30;13.07;;;8.90;;
4122;SDS011;2075;51.062;6.920;2023-04-06T08:18:16;17.37;;;10.60;;
4122;SDS011;2075;51.062;6.920;2023-04-06T08:21:01;18.98;;;10.90;;
4122;SDS011;2075;51.062;6.920;2023-04-06T08:23:48;13.70;;;9.70;;
4122;SDS011;2075;51.062;6.920;2023-04-06T08:26:34;14.53;;;9.30;;
4122;SDS011;2075;51.062;6.920;2023-04-06T08:29:20;13.05;;;9.65;;
4122;SDS011;2075;51.062;6.920;2023-04-06T08:32:05;16.40;;;10.20;;
4122;SDS011;2075;51.062;6.920;2023-04-06T08:34:52;14.60;;;10.20;;
4122;SDS011;2075;51.062;6.920;2023-04-06T08:37:39;16.52;;;10.90;;
4122;SDS011;2075;51.062;6.920;2023-04-06T08:40:26;16.83;;;10.90;;
4122;SDS011;2075;51.062;6.920;2023-04-06T08:43:13;15.23;;;10.13;;
4122;SDS011;2075;51.062;6.920;2023-04-06T08:45:59;14.45;;;10.98;;
4122;SDS011;2075;51.062;6.920;2023-04-06T08:48:44;13.20;;;9.13;;
4122;SDS011;2075;51.062;6.920;2023-04-06T08:51:34;21.97;;;12.07;;
4122;SDS011;2075;51.062;6.920;2023-04-06T08:54:22;16.10;;;10.37;;
4122;SDS011;2075;51.062;6.920;2023-04-06T08:57:10;15.70;;;10.20;;
4122;SDS011;2075;51.062;6.920;2023-04-06T08:59:56;17.73;;;9.53;;
4122;SDS011;2075;51.062;6.920;2023-04-06T09:02:43;18.53;;;11.10;;
4122;SDS011;2075;51.062;6.920;2023-04-06T09:05:31;17.87;;;10.37;;
4122;SDS011;2075;51.062;6.920;2023-04-06T09:08:17;18.37;;;11.00;;
4122;SDS011;2075;51.062;6.920;2023-04-06T09:11:03;18.30;;;10.90;;
4122;SDS011;2075;51.062;6.920;2023-04-06T09:13:51;16.23;;;10.63;;
4122;SDS011;2075;51.062;6.920;2023-04-06T09:16:41;24.50;;;12.03;;
4122;SDS011;2075;51.062;6.920;2023-04-06T09:19:27;15.90;;;10.50;;
4122;SDS011;2075;51.062;6.920;2023-04-06T09:22:13;23.00;;;12.33;;
4122;SDS011;2075;51.062;6.920;2023-04-06T09:25:02;23.40;;;11.93;;
4122;SDS011;2075;51.062;6.920;2023-04-06T09:27:48;17.80;;;12.27;;
4122;SDS011;2075;51.062;6.920;2023-04-06T09:30:48;19.00;;;11.40;;
4122;SDS011;2075;51.062;6.920;2023-04-06T09:33:34;23.52;;;12.10;;
4122;SDS011;2075;51.062;6.920;2023-04-06T09:36:29;18.63;;;12.57;;
4122;SDS011;2075;51.062;6.920;2023-04-06T09:39:19;22.77;;;11.93;;
4122;SDS011;2075;51.062;6.920;2023-04-06T09:42:05;16.20;;;10.60;;
4122;SDS011;2075;51.062;6.920;2023-04-06T09:44:51;21.00;;;10.87;;
4122;SDS011;2075;51.062;6.920;2023-04-06T09:47:39;21.67;;;12.60;;
4122;SDS011;2075;51.062;6.920;2023-04-06T09:50:27;20.33;;;12.07;;
4122;SDS011;2075;51.062;6.920;2023-04-06T09:53:14;19.23;;;11.00;;
4122;SDS011;2075;51.062;6.920;2023-04-06T09:56:03;19.07;;;10.80;;
4122;SDS011;2075;51.062;6.920;2023-04-06T09:58:54;27.73;;;11.07;;
4122;SDS011;2075;51.062;6.920;2023-04-06T10:01:46;18.40;;;11.90;;
4122;SDS011;2075;51.062;6.920;2023-04-06T10:04:39;21.00;;;11.77;;
4122;SDS011;2075;51.062;6.920;2023-04-06T10:07:28;18.70;;;11.23;;
4122;SDS011;2075;51.062;6.920;2023-04-06T10:10:15;23.30;;;13.33;;
4122;SDS011;2075;51.062;6.920;2023-04-06T10:13:01;19.37;;;12.00;;
4122;SDS011;2075;51.062;6.920;2023-04-06T10:15:49;22.90;;;13.37;;
4122;SDS011;2075;51.062;6.920;2023-04-06T10:18:36;22.67;;;11.70;;
4122;SDS011;2075;51.062;6.920;2023-04-06T10:21:28;21.40;;;12.00;;
4122;SDS011;2075;51.062;6.920;2023-04-06T10:24:16;19.60;;;11.83;;
4122;SDS011;2075;51.062;6.920;2023-04-06T10:27:02;16.70;;;11.03;;
4122;SDS011;2075;51.062;6.920;2023-04-06T10:29:48;24.13;;;13.70;;
4122;SDS011;2075;51.062;6.920;2023-04-06T10:32:36;22.10;;;14.20;;
4122;SDS011;2075;51.062;6.920;2023-04-06T10:35:22;26.93;;;12.57;;
4122;SDS011;2075;51.062;6.920;2023-04-06T10:38:10;21.67;;;12.70;;
4122;SDS011;2075;51.062;6.920;2023-04-06T10:41:03;20.73;;;11.50;;
4122;SDS011;2075;51.062;6.920;2023-04-06T10:43:54;24.37;;;13.33;;
4122;SDS011;2075;51.062;6.920;2023-04-06T10:46:41;22.20;;;13.43;;
4122;SDS011;2075;51.062;6.920;2023-04-06T10:49:38;30.40;;;14.33;;
4122;SDS011;2075;51.062;6.920;2023-04-06T10:52:24;24.03;;;12.90;;
4122;SDS011;2075;51.062;6.920;2023-04-06T10:55:10;24.50;;;12.67;;
4122;SDS011;2075;51.062;6.920;2023-04-06T10:57:58;17.43;;;11.33;;
4122;SDS011;2075;51.062;6.920;2023-04-06T11:00:44;21.27;;;11.50;;
4122;SDS011;2075;51.062;6.920;2023-04-06T11:03:30;31.47;;;14.87;;
4122;SDS011;2075;51.062;6.920;2023-04-06T11:06:18;26.20;;;14.13;;
4122;SDS011;2075;51.062;6.920;2023-04-06T11:09:04;18.97;;;11.87;;
4122;SDS011;2075;51.062;6.920;2023-04-06T11:11:51;23.77;;;12.50;;
4122;SDS011;2075;51.062;6.920;2023-04-06T11:14:37;23.83;;;12.67;;
4122;SDS011;2075;51.062;6.920;2023-04-06T11:17:26;29.77;;;17.73;;
4122;SDS011;2075;51.062;6.920;2023-04-06T11:20:13;31.00;;;16.53;;
4122;SDS011;2075;51.062;6.920;2023-04-06T11:22:58;16.73;;;11.27;;
4122;SDS011;2075;51.062;6.920;2023-04-06T11:25:49;21.00;;;12.73;;
4122;SDS011;2075;51.062;6.920;2023-04-06T11:28:37;25.50;;;12.70;;
4122;SDS011;2075;51.062;6.920;2023-04-06T11:31:24;20.23;;;12.33;;
4122;SDS011;2075;51.062;6.920;2023-04-06T11:34:11;21.40;;;12.40;;
4122;SDS011;2075;51.062;6.920;2023-04-06T11:36:58;25.93;;;13.30;;
4122;SDS011;2075;51.062;6.920;2023-04-06T11:39:46;21.90;;;12.57;;
4122;SDS011;2075;51.062;6.920;2023-04-06T11:42:34;22.43;;;12.13;;
4122;SDS011;2075;51.062;6.920;2023-04-06T11:45:22;20.70;;;13.17;;
4122;SDS011;2075;51.062;6.920;2023-04-06T11:48:17;21.10;;;13.73;;
4122;SDS011;2075;51.062;6.920;2023-04-06T11:51:03;22.20;;;12.10;;
4122;SDS011;2075;51.062;6.920;2023-04-06T11:53:51;26.40;;;15.43;;
4122;SDS011;2075;51.062;6.920;2023-04-06T11:56:36;21.43;;;12.70;;
4122;SDS011;2075;51.062;6.920;2023-04-06T11:59:21;17.43;;;11.60;;
4122;SDS011;2075;51.062;6.920;2023-04-06T12:02:09;25.40;;;11.80;;
4122;SDS011;2075;51.062;6.920;2023-04-06T12:04:55;19.43;;;12.07;;
4122;SDS011;2075;51.062;6.920;2023-04-06T12:07:41;19.33;;;11.40;;
4122;SDS011;2075;51.062;6.920;2023-04-06T12:10:27;20.30;;;11.50;;
4122;SDS011;2075;51.062;6.920;2023-04-06T12:13:13;19.10;;;11.07;;
4122;SDS011;2075;51.062;6.920;2023-04-06T12:15:59;22.53;;;13.00;;
4122;SDS011;2075;51.062;6.920;2023-04-06T12:18:46;31.57;;;12.90;;
4122;SDS011;2075;51.062;6.920;2023-04-06T12:21:33;16.90;;;10.53;;
4122;SDS011;2075;51.062;6.920;2023-04-06T12:24:20;23.70;;;12.03;;
4122;SDS011;2075;51.062;6.920;2023-04-06T12:27:06;20.30;;;11.10;;
4122;SDS011;2075;51.062;6.920;2023-04-06T12:29:53;19.07;;;11.53;;
4122;SDS011;2075;51.062;6.920;2023-04-06T12:32:39;17.33;;;11.50;;
4122;SDS011;2075;51.062;6.920;2023-04-06T12:35:27;16.57;;;11.30;;
4122;SDS011;2075;51.062;6.920;2023-04-06T12:38:13;19.97;;;10.80;;
4122;SDS011;2075;51.062;6.920;2023-04-06T12:41:00;19.00;;;10.73;;
4122;SDS011;2075;51.062;6.920;2023-04-06T12:43:46;23.37;;;10.83;;
4122;SDS011;2075;51.062;6.920;2023-04-06T12:46:31;20.53;;;10.47;;
4122;SDS011;2075;51.062;6.920;2023-04-06T12:49:17;15.73;;;10.03;;
4122;SDS011;2075;51.062;6.920;2023-04-06T12:52:05;16.20;;;10.73;;
4122;SDS011;2075;51.062;6.920;2023-04-06T12:54:50;15.67;;;9.07;;
4122;SDS011;2075;51.062;6.920;2023-04-06T12:57:36;16.30;;;9.83;;
4122;SDS011;2075;51.062;6.920;2023-04-06T13:00:22;14.70;;;9.50;;
4122;SDS011;2075;51.062;6.920;2023-04-06T13:03:09;14.80;;;9.93;;
4122;SDS011;2075;51.062;6.920;2023-04-06T13:05:55;19.17;;;9.20;;
4122;SDS011;2075;51.062;6.920;2023-04-06T13:08:42;18.23;;;9.60;;
4122;SDS011;2075;51.062;6.920;2023-04-06T13:11:28;16.20;;;9.03;;
4122;SDS011;2075;51.062;6.920;2023-04-06T13:14:14;11.87;;;8.37;;
4122;SDS011;2075;51.062;6.920;2023-04-06T13:17:00;17.80;;;8.77;;
4122;SDS011;2075;51.062;6.920;2023-04-06T13:19:46;11.80;;;7.63;;
4122;SDS011;2075;51.062;6.920;2023-04-06T13:22:31;15.40;;;7.30;;
4122;SDS011;2075;51.062;6.920;2023-04-06T13:25:18;10.87;;;7.60;;
4122;SDS011;2075;51.062;6.920;2023-04-06T13:28:04;8.10;;;6.47;;
4122;SDS011;2075;51.062;6.920;2023-04-06T13:30:50;13.27;;;7.80;;
4122;SDS011;2075;51.062;6.920;2023-04-06T13:33:35;12.87;;;7.70;;
4122;SDS011;2075;51.062;6.920;2023-04-06T13:36:22;9.87;;;7.67;;
4122;SDS011;2075;51.062;6.920;2023-04-06T13:39:08;11.80;;;7.60;;
4122;SDS011;2075;51.062;6.920;2023-04-06T13:41:55;11.20;;;7.30;;
4122;SDS011;2075;51.062;6.920;2023-04-06T13:44:41;11.10;;;7.57;;
4122;SDS011;2075;51.062;6.920;2023-04-06T13:47:27;13.77;;;7.87;;
4122;SDS011;2075;51.062;6.920;2023-04-06T13:50:13;25.77;;;8.37;;
4122;SDS011;2075;51.062;6.920;2023-04-06T13:52:59;12.60;;;7.37;;
4122;SDS011;2075;51.062;6.920;2023-04-06T13:55:51;12.43;;;6.90;;
4122;SDS011;2075;51.062;6.920;2023-04-06T13:58:39;13.23;;;8.27;;
4122;SDS011;2075;51.062;6.920;2023-04-06T14:01:24;12.00;;;6.23;;
4122;SDS011;2075;51.062;6.920;2023-04-06T14:04:10;10.90;;;7.43;;
4122;SDS011;2075;51.062;6.920;2023-04-06T14:06:56;9.77;;;6.30;;
4122;SDS011;2075;51.062;6.920;2023-04-06T14:09:41;10.10;;;6.83;;
4122;SDS011;2075;51.062;6.920;2023-04-06T14:12:27;14.43;;;7.20;;
4122;SDS011;2075;51.062;6.920;2023-04-06T14:15:14;10.87;;;7.50;;
4122;SDS011;2075;51.062;6.920;2023-04-06T14:18:00;14.60;;;8.17;;
4122;SDS011;2075;51.062;6.920;2023-04-06T14:20:45;14.17;;;8.13;;
4122;SDS011;2075;51.062;6.920;2023-04-06T14:23:38;10.20;;;7.53;;
4122;SDS011;2075;51.062;6.920;2023-04-06T14:26:23;15.30;;;9.33;;
4122;SDS011;2075;51.062;6.920;2023-04-06T14:29:10;16.30;;;8.97;;
4122;SDS011;2075;51.062;6.920;2023-04-06T14:31:57;13.37;;;7.53;;
4122;SDS011;2075;51.062;6.920;2023-04-06T14:34:43;10.23;;;6.37;;
4122;SDS011;2075;51.062;6.920;2023-04-06T14:37:29;11.37;;;6.53;;
4122;SDS011;2075;51.062;6.920;2023-04-06T14:40:14;12.07;;;7.67;;
4122;SDS011;2075;51.062;6.920;2023-04-06T14:42:59;9.50;;;6.50;;
4122;SDS011;2075;51.062;6.920;2023-04-06T14:45:45;12.20;;;7.70;;
4122;SDS011;2075;51.062;6.920;2023-04-06T14:48:32;10.37;;;6.50;;
4122;SDS011;2075;51.062;6.920;2023-04-06T14:51:17;11.10;;;7.53;;
4122;SDS011;2075;51.062;6.920;2023-04-06T14:54:03;8.50;;;6.50;;
4122;SDS011;2075;51.062;6.920;2023-04-06T14:56:48;9.07;;;6.13;;
4122;SDS011;2075;51.062;6.920;2023-04-06T14:59:33;8.80;;;6.90;;
4122;SDS011;2075;51.062;6.920;2023-04-06T15:02:19;9.57;;;6.60;;
4122;SDS011;2075;51.062;6.920;2023-04-06T15:05:06;12.53;;;7.10;;
4122;SDS011;2075;51.062;6.920;2023-04-06T15:07:52;8.70;;;6.20;;
4122;SDS011;2075;51.062;6.920;2023-04-06T15:10:37;10.03;;;6.87;;
4122;SDS011;2075;51.062;6.920;2023-04-06T15:13:23;10.60;;;6.83;;
4122;SDS011;2075;51.062;6.920;2023-04-06T15:16:09;9.10;;;6.27;;
4122;SDS011;2075;51.062;6.920;2023-04-06T15:18:54;9.47;;;6.43;;
4122;SDS011;2075;51.062;6.920;2023-04-06T15:21:41;7.00;;;5.60;;
4122;SDS011;2075;51.062;6.920;2023-04-06T15:24:26;10.37;;;6.80;;
4122;SDS011;2075;51.062;6.920;2023-04-06T15:27:12;9.70;;;6.67;;
4122;SDS011;2075;51.062;6.920;2023-04-06T15:29:57;8.87;;;6.10;;
4122;SDS011;2075;51.062;6.920;2023-04-06T15:32:46;8.67;;;6.30;;
4122;SDS011;2075;51.062;6.920;2023-04-06T15:35:37;9.10;;;6.57;;
4122;SDS011;2075;51.062;6.920;2023-04-06T15:38:25;9.37;;;6.70;;
4122;SDS011;2075;51.062;6.920;2023-04-06T15:41:10;8.30;;;6.60;;
4122;SDS011;2075;51.062;6.920;2023-04-06T15:43:58;9.60;;;6.50;;
4122;SDS011;2075;51.062;6.920;2023-04-06T15:46:44;10.77;;;6.70;;
4122;SDS011;2075;51.062;6.920;2023-04-06T15:49:29;11.87;;;6.80;;
4122;SDS011;2075;51.062;6.920;2023-04-06T15:52:15;10.30;;;7.47;;
4122;SDS011;2075;51.062;6.920;2023-04-06T15:55:03;11.83;;;7.50;;
4122;SDS011;2075;51.062;6.920;2023-04-06T15:57:50;14.47;;;8.07;;
4122;SDS011;2075;51.062;6.920;2023-04-06T16:00:35;11.20;;;8.07;;
4122;SDS011;2075;51.062;6.920;2023-04-06T16:03:20;17.63;;;9.90;;
4122;SDS011;2075;51.062;6.920;2023-04-06T16:06:06;13.67;;;8.17;;
4122;SDS011;2075;51.062;6.920;2023-04-06T16:08:52;14.20;;;8.70;;
4122;SDS011;2075;51.062;6.920;2023-04-06T16:11:39;14.55;;;9.32;;
4122;SDS011;2075;51.062;6.920;2023-04-06T16:14:24;21.17;;;10.90;;
4122;SDS011;2075;51.062;6.920;2023-04-06T16:17:10;14.77;;;9.03;;
4122;SDS011;2075;51.062;6.920;2023-04-06T16:19:55;13.57;;;9.00;;
4122;SDS011;2075;51.062;6.920;2023-04-06T16:22:41;17.30;;;10.50;;
4122;SDS011;2075;51.062;6.920;2023-04-06T16:25:26;19.83;;;12.20;;
4122;SDS011;2075;51.062;6.920;2023-04-06T16:28:15;18.27;;;10.97;;
4122;SDS011;2075;51.062;6.920;2023-04-06T16:31:01;15.43;;;9.37;;
4122;SDS011;2075;51.062;6.920;2023-04-06T16:33:46;16.47;;;9.80;;
4122;SDS011;2075;51.062;6.920;2023-04-06T16:36:32;18.53;;;11.23;;
4122;SDS011;2075;51.062;6.920;2023-04-06T16:39:18;15.50;;;9.70;;
4122;SDS011;2075;51.062;6.920;2023-04-06T16:42:03;16.30;;;10.10;;
4122;SDS011;2075;51.062;6.920;2023-04-06T16:44:51;14.40;;;10.20;;
4122;SDS011;2075;51.062;6.920;2023-04-06T16:47:36;18.05;;;10.70;;
4122;SDS011;2075;51.062;6.920;2023-04-06T16:50:21;17.37;;;9.93;;
4122;SDS011;2075;51.062;6.920;2023-04-06T16:53:07;19.43;;;10.93;;
4122;SDS011;2075;51.062;6.920;2023-04-06T16:55:53;15.20;;;9.00;;
4122;SDS011;2075;51.062;6.920;2023-04-06T16:58:38;14.90;;;8.67;;
4122;SDS011;2075;51.062;6.920;2023-04-06T17:01:26;13.83;;;9.40;;
4122;SDS011;2075;51.062;6.920;2023-04-06T17:04:12;12.10;;;8.50;;